sensor_id;sensor_type;location;lat;lon;timestamp;P1;durP1;ratioP1;P2;durP2;ratioP2
22240;SDS011;11289;52.524;13.694;2022-10-16T00:01:36;4.57;;;4.07;;
22240;SDS011;11289;52.524;13.694;2022-10-16T00:04:02;4.28;;;3.88;;
22240;SDS011;11289;52.524;13.694;2022-10-16T00:06:28;6.22;;;3.95;;
22240;SDS011;11289;52.524;13.694;2022-10-16T00:08:54;4.43;;;3.72;;
22240;SDS011;11289;52.524;13.694;2022-10-16T00:11:24;6.03;;;4.30;;
22240;SDS011;11289;52.524;13.694;2022-10-16T00:13:54;5.13;;;3.92;;
22240;SDS011;11289;52.524;13.694;2022-10-16T00:16:21;4.80;;;3.40;;
22240;SDS011;11289;52.524;13.694;2022-10-16T00:18:47;4.55;;;4.13;;
22240;SDS011;11289;52.524;13.694;2022-10-16T00:21:14;5.00;;;3.75;;
22240;SDS011;11289;52.524;13.694;2022-10-16T00:23:41;5.28;;;3.63;;
22240;SDS011;11289;52.524;13.694;2022-10-16T00:26:08;4.47;;;3.63;;
22240;SDS011;11289;52.524;13.694;2022-10-16T00:28:36;3.38;;;3.08;;
22240;SDS011;11289;52.524;13.694;2022-10-16T00:31:05;4.43;;;3.17;;
22240;SDS011;11289;52.524;13.694;2022-10-16T00:33:32;4.55;;;3.45;;
22240;SDS011;11289;52.524;13.694;2022-10-16T00:35:59;4.78;;;3.03;;
22240;SDS011;11289;52.524;13.694;2022-10-16T00:38:25;4.95;;;3.10;;
22240;SDS011;11289;52.524;13.694;2022-10-16T00:40:50;3.83;;;2.45;;
22240;SDS011;11289;52.524;13.694;2022-10-16T00:46:04;3.20;;;2.78;;
22240;SDS011;11289;52.524;13.694;2022-10-16T00:48:35;3.47;;;2.92;;
22240;SDS011;11289;52.524;13.694;2022-10-16T00:51:02;3.67;;;2.90;;
22240;SDS011;11289;52.524;13.694;2022-10-16T00:53:28;3.17;;;2.60;;
22240;SDS011;11289;52.524;13.694;2022-10-16T00:55:54;4.20;;;2.63;;
22240;SDS011;11289;52.524;13.694;2022-10-16T00:58:19;3.05;;;2.75;;
22240;SDS011;11289;52.524;13.694;2022-10-16T01:00:45;4.22;;;2.03;;
22240;SDS011;11289;52.524;13.694;2022-10-16T01:06:02;3.17;;;2.83;;
22240;SDS011;11289;52.524;13.694;2022-10-16T01:08:39;3.00;;;2.67;;
22240;SDS011;11289;52.524;13.694;2022-10-16T01:13:57;4.22;;;2.50;;
22240;SDS011;11289;52.524;13.694;2022-10-16T01:16:32;3.38;;;2.50;;
22240;SDS011;11289;52.524;13.694;2022-10-16T01:19:49;2.67;;;2.35;;
22240;SDS011;11289;52.524;13.694;2022-10-16T01:22:04;2.60;;;2.30;;
22240;SDS011;11289;52.524;13.694;2022-10-16T01:29:36;4.70;;;2.55;;
22240;SDS011;11289;52.524;13.694;2022-10-16T01:32:22;2.30;;;1.98;;
22240;SDS011;11289;52.524;13.694;2022-10-16T01:37:40;2.65;;;2.22;;
22240;SDS011;11289;52.524;13.694;2022-10-16T01:40:14;2.40;;;2.03;;
22240;SDS011;11289;52.524;13.694;2022-10-16T01:42:44;2.35;;;1.92;;
22240;SDS011;11289;52.524;13.694;2022-10-16T01:45:13;4.22;;;2.10;;
22240;SDS011;11289;52.524;13.694;2022-10-16T01:47:43;2.80;;;2.35;;
22240;SDS011;11289;52.524;13.694;2022-10-16T01:50:09;2.67;;;2.00;;
22240;SDS011;11289;52.524;13.694;2022-10-16T01:52:37;4.57;;;1.98;;
22240;SDS011;11289;52.524;13.694;2022-10-16T01:55:05;3.80;;;2.38;;
22240;SDS011;11289;52.524;13.694;2022-10-16T01:57:34;2.60;;;2.20;;
22240;SDS011;11289;52.524;13.694;2022-10-16T02:00:05;2.10;;;1.90;;
22240;SDS011;11289;52.524;13.694;2022-10-16T02:02:35;3.53;;;2.38;;
22240;SDS011;11289;52.524;13.694;2022-10-16T02:05:05;4.45;;;2.00;;
22240;SDS011;11289;52.524;13.694;2022-10-16T02:07:37;1.92;;;1.73;;
22240;SDS011;11289;52.524;13.694;2022-10-16T02:10:03;3.38;;;1.75;;
22240;SDS011;11289;52.524;13.694;2022-10-16T02:12:30;2.20;;;2.00;;
22240;SDS011;11289;52.524;13.694;2022-10-16T02:14:58;2.25;;;1.95;;
22240;SDS011;11289;52.524;13.694;2022-10-16T02:17:24;1.83;;;1.60;;
22240;SDS011;11289;52.524;13.694;2022-10-16T02:19:50;2.65;;;1.92;;
22240;SDS011;11289;52.524;13.694;2022-10-16T02:22:20;3.50;;;2.50;;
22240;SDS011;11289;52.524;13.694;2022-10-16T02:24:53;2.10;;;1.80;;
22240;SDS011;11289;52.524;13.694;2022-10-16T02:29:49;3.42;;;1.70;;
22240;SDS011;11289;52.524;13.694;2022-10-16T02:32:23;2.20;;;1.95;;
22240;SDS011;11289;52.524;13.694;2022-10-16T02:34:52;2.55;;;2.10;;
22240;SDS011;11289;52.524;13.694;2022-10-16T02:37:19;3.65;;;1.95;;
22240;SDS011;11289;52.524;13.694;2022-10-16T02:39:45;4.82;;;2.03;;
22240;SDS011;11289;52.524;13.694;2022-10-16T02:42:14;3.50;;;2.03;;
22240;SDS011;11289;52.524;13.694;2022-10-16T02:44:40;3.72;;;2.38;;
22240;SDS011;11289;52.524;13.694;2022-10-16T02:47:05;2.65;;;1.52;;
22240;SDS011;11289;52.524;13.694;2022-10-16T02:49:31;2.13;;;1.05;;
22240;SDS011;11289;52.524;13.694;2022-10-16T02:51:56;1.75;;;1.23;;
22240;SDS011;11289;52.524;13.694;2022-10-16T02:54:22;2.92;;;1.50;;
22240;SDS011;11289;52.524;13.694;2022-10-16T02:56:47;2.25;;;1.80;;
22240;SDS011;11289;52.524;13.694;2022-10-16T02:59:13;4.85;;;2.00;;
22240;SDS011;11289;52.524;13.694;2022-10-16T03:01:38;2.65;;;1.92;;
22240;SDS011;11289;52.524;13.694;2022-10-16T03:04:03;2.55;;;1.70;;
22240;SDS011;11289;52.524;13.694;2022-10-16T03:06:29;2.00;;;1.20;;
22240;SDS011;11289;52.524;13.694;2022-10-16T03:08:54;2.45;;;1.98;;
22240;SDS011;11289;52.524;13.694;2022-10-16T03:11:19;3.35;;;2.17;;
22240;SDS011;11289;52.524;13.694;2022-10-16T03:13:45;1.98;;;1.58;;
22240;SDS011;11289;52.524;13.694;2022-10-16T03:16:10;1.92;;;1.70;;
22240;SDS011;11289;52.524;13.694;2022-10-16T03:18:36;3.15;;;1.70;;
22240;SDS011;11289;52.524;13.694;2022-10-16T03:21:01;3.65;;;1.90;;
22240;SDS011;11289;52.524;13.694;2022-10-16T03:23:27;2.28;;;1.92;;
22240;SDS011;11289;52.524;13.694;2022-10-16T03:25:53;1.83;;;1.58;;
22240;SDS011;11289;52.524;13.694;2022-10-16T03:28:18;2.97;;;1.80;;
22240;SDS011;11289;52.524;13.694;2022-10-16T03:30:44;2.00;;;1.88;;
22240;SDS011;11289;52.524;13.694;2022-10-16T03:33:09;2.33;;;2.00;;
22240;SDS011;11289;52.524;13.694;2022-10-16T03:35:35;2.88;;;1.40;;
22240;SDS011;11289;52.524;13.694;2022-10-16T03:38:00;1.90;;;1.67;;
22240;SDS011;11289;52.524;13.694;2022-10-16T03:40:26;2.45;;;1.83;;
22240;SDS011;11289;52.524;13.694;2022-10-16T03:42:51;2.25;;;2.00;;
22240;SDS011;11289;52.524;13.694;2022-10-16T03:45:16;2.40;;;2.05;;
22240;SDS011;11289;52.524;13.694;2022-10-16T03:47:42;3.28;;;1.92;;
22240;SDS011;11289;52.524;13.694;2022-10-16T03:50:08;2.35;;;1.80;;
22240;SDS011;11289;52.524;13.694;2022-10-16T03:52:33;2.20;;;1.70;;
22240;SDS011;11289;52.524;13.694;2022-10-16T03:54:59;2.22;;;1.42;;
22240;SDS011;11289;52.524;13.694;2022-10-16T03:57:24;3.30;;;1.70;;
22240;SDS011;11289;52.524;13.694;2022-10-16T03:59:50;2.85;;;1.85;;
22240;SDS011;11289;52.524;13.694;2022-10-16T04:02:15;3.35;;;1.50;;
22240;SDS011;11289;52.524;13.694;2022-10-16T04:04:41;2.90;;;1.92;;
22240;SDS011;11289;52.524;13.694;2022-10-16T04:07:07;3.47;;;2.17;;
22240;SDS011;11289;52.524;13.694;2022-10-16T04:09:32;1.83;;;1.63;;
22240;SDS011;11289;52.524;13.694;2022-10-16T04:11:58;2.78;;;1.85;;
22240;SDS011;11289;52.524;13.694;2022-10-16T04:14:23;2.22;;;2.03;;
22240;SDS011;11289;52.524;13.694;2022-10-16T04:16:49;2.38;;;1.88;;
22240;SDS011;11289;52.524;13.694;2022-10-16T04:19:14;2.58;;;2.22;;
22240;SDS011;11289;52.524;13.694;2022-10-16T04:21:39;1.98;;;1.80;;
22240;SDS011;11289;52.524;13.694;2022-10-16T04:24:05;2.60;;;2.40;;
22240;SDS011;11289;52.524;13.694;2022-10-16T04:26:30;2.45;;;1.83;;
22240;SDS011;11289;52.524;13.694;2022-10-16T04:28:56;2.22;;;2.00;;
22240;SDS011;11289;52.524;13.694;2022-10-16T04:31:21;2.97;;;1.92;;
22240;SDS011;11289;52.524;13.694;2022-10-16T04:33:47;2.22;;;1.80;;
22240;SDS011;11289;52.524;13.694;2022-10-16T04:36:12;2.75;;;2.20;;
22240;SDS011;11289;52.524;13.694;2022-10-16T04:38:38;2.35;;;1.90;;
22240;SDS011;11289;52.524;13.694;2022-10-16T04:41:04;4.55;;;2.10;;
22240;SDS011;11289;52.524;13.694;2022-10-16T04:43:31;3.75;;;1.92;;
22240;SDS011;11289;52.524;13.694;2022-10-16T04:45:56;3.45;;;2.17;;
22240;SDS011;11289;52.524;13.694;2022-10-16T04:48:21;2.40;;;2.00;;
22240;SDS011;11289;52.524;13.694;2022-10-16T04:50:47;4.60;;;3.00;;
22240;SDS011;11289;52.524;13.694;2022-10-16T04:53:12;2.33;;;2.03;;
22240;SDS011;11289;52.524;13.694;2022-10-16T04:55:38;5.80;;;2.47;;
22240;SDS011;11289;52.524;13.694;2022-10-16T04:58:04;9.35;;;3.55;;
22240;SDS011;11289;52.524;13.694;2022-10-16T05:00:30;9.52;;;3.75;;
22240;SDS011;11289;52.524;13.694;2022-10-16T05:02:56;9.85;;;5.47;;
22240;SDS011;11289;52.524;13.694;2022-10-16T05:05:22;10.90;;;6.18;;
22240;SDS011;11289;52.524;13.694;2022-10-16T05:07:48;10.43;;;6.00;;
22240;SDS011;11289;52.524;13.694;2022-10-16T05:10:14;9.48;;;5.90;;
22240;SDS011;11289;52.524;13.694;2022-10-16T05:12:40;8.73;;;6.50;;
22240;SDS011;11289;52.524;13.694;2022-10-16T05:15:05;13.82;;;7.20;;
22240;SDS011;11289;52.524;13.694;2022-10-16T05:17:31;10.30;;;6.45;;
22240;SDS011;11289;52.524;13.694;2022-10-16T05:19:56;9.07;;;5.90;;
22240;SDS011;11289;52.524;13.694;2022-10-16T05:22:22;9.45;;;5.20;;
22240;SDS011;11289;52.524;13.694;2022-10-16T05:24:47;8.90;;;5.43;;
22240;SDS011;11289;52.524;13.694;2022-10-16T05:27:13;8.02;;;4.90;;
22240;SDS011;11289;52.524;13.694;2022-10-16T05:29:44;4.82;;;3.38;;
22240;SDS011;11289;52.524;13.694;2022-10-16T05:32:11;6.50;;;3.28;;
22240;SDS011;11289;52.524;13.694;2022-10-16T05:34:37;3.45;;;3.13;;
22240;SDS011;11289;52.524;13.694;2022-10-16T05:37:02;4.05;;;2.88;;
22240;SDS011;11289;52.524;13.694;2022-10-16T05:39:28;4.20;;;2.30;;
22240;SDS011;11289;52.524;13.694;2022-10-16T05:41:53;3.03;;;2.75;;
22240;SDS011;11289;52.524;13.694;2022-10-16T05:44:18;3.90;;;2.42;;
22240;SDS011;11289;52.524;13.694;2022-10-16T05:46:45;3.08;;;2.47;;
22240;SDS011;11289;52.524;13.694;2022-10-16T05:49:11;2.70;;;2.13;;
22240;SDS011;11289;52.524;13.694;2022-10-16T05:51:36;3.72;;;2.65;;
22240;SDS011;11289;52.524;13.694;2022-10-16T05:54:02;2.92;;;2.17;;
22240;SDS011;11289;52.524;13.694;2022-10-16T05:56:27;4.60;;;3.28;;
22240;SDS011;11289;52.524;13.694;2022-10-16T05:58:53;3.88;;;2.88;;
22240;SDS011;11289;52.524;13.694;2022-10-16T06:01:19;6.60;;;2.60;;
22240;SDS011;11289;52.524;13.694;2022-10-16T06:03:46;3.25;;;2.40;;
22240;SDS011;11289;52.524;13.694;2022-10-16T06:06:12;4.00;;;2.35;;
22240;SDS011;11289;52.524;13.694;2022-10-16T06:08:43;3.15;;;2.47;;
22240;SDS011;11289;52.524;13.694;2022-10-16T06:11:11;2.58;;;2.22;;
22240;SDS011;11289;52.524;13.694;2022-10-16T06:13:38;4.18;;;2.60;;
22240;SDS011;11289;52.524;13.694;2022-10-16T06:16:06;4.63;;;2.33;;
22240;SDS011;11289;52.524;13.694;2022-10-16T06:18:31;3.97;;;2.40;;
22240;SDS011;11289;52.524;13.694;2022-10-16T06:20:57;3.67;;;2.60;;
22240;SDS011;11289;52.524;13.694;2022-10-16T06:23:23;4.13;;;2.53;;
22240;SDS011;11289;52.524;13.694;2022-10-16T06:25:48;4.43;;;2.90;;
22240;SDS011;11289;52.524;13.694;2022-10-16T06:28:14;4.65;;;2.80;;
22240;SDS011;11289;52.524;13.694;2022-10-16T06:30:40;4.05;;;3.00;;
22240;SDS011;11289;52.524;13.694;2022-10-16T06:33:05;3.28;;;2.70;;
22240;SDS011;11289;52.524;13.694;2022-10-16T06:35:30;4.70;;;3.15;;
22240;SDS011;11289;52.524;13.694;2022-10-16T06:37:57;4.70;;;3.83;;
22240;SDS011;11289;52.524;13.694;2022-10-16T06:40:22;4.88;;;3.72;;
22240;SDS011;11289;52.524;13.694;2022-10-16T06:42:48;3.80;;;3.50;;
22240;SDS011;11289;52.524;13.694;2022-10-16T06:45:13;4.35;;;3.95;;
22240;SDS011;11289;52.524;13.694;2022-10-16T06:47:39;4.25;;;3.85;;
22240;SDS011;11289;52.524;13.694;2022-10-16T06:50:04;4.80;;;4.28;;
22240;SDS011;11289;52.524;13.694;2022-10-16T06:52:32;6.38;;;4.50;;
22240;SDS011;11289;52.524;13.694;2022-10-16T06:54:58;5.75;;;3.55;;
22240;SDS011;11289;52.524;13.694;2022-10-16T06:57:23;2.88;;;2.42;;
22240;SDS011;11289;52.524;13.694;2022-10-16T06:59:49;3.30;;;2.65;;
22240;SDS011;11289;52.524;13.694;2022-10-16T07:02:14;4.05;;;2.40;;
22240;SDS011;11289;52.524;13.694;2022-10-16T07:04:39;4.10;;;2.15;;
22240;SDS011;11289;52.524;13.694;2022-10-16T07:07:05;3.90;;;2.38;;
22240;SDS011;11289;52.524;13.694;2022-10-16T07:09:30;3.83;;;2.17;;
22240;SDS011;11289;52.524;13.694;2022-10-16T07:11:56;4.35;;;2.50;;
22240;SDS011;11289;52.524;13.694;2022-10-16T07:14:21;3.10;;;2.42;;
22240;SDS011;11289;52.524;13.694;2022-10-16T07:16:47;4.38;;;3.13;;
22240;SDS011;11289;52.524;13.694;2022-10-16T07:19:13;5.05;;;3.08;;
22240;SDS011;11289;52.524;13.694;2022-10-16T07:21:40;4.15;;;3.08;;
22240;SDS011;11289;52.524;13.694;2022-10-16T07:24:06;3.88;;;2.80;;
22240;SDS011;11289;52.524;13.694;2022-10-16T07:26:37;3.55;;;2.78;;
22240;SDS011;11289;52.524;13.694;2022-10-16T07:29:04;5.75;;;2.70;;
22240;SDS011;11289;52.524;13.694;2022-10-16T07:31:31;3.90;;;2.85;;
22240;SDS011;11289;52.524;13.694;2022-10-16T07:33:57;4.25;;;2.22;;
22240;SDS011;11289;52.524;13.694;2022-10-16T07:36:24;2.60;;;2.40;;
22240;SDS011;11289;52.524;13.694;2022-10-16T07:38:50;3.33;;;2.42;;
22240;SDS011;11289;52.524;13.694;2022-10-16T07:41:16;3.53;;;2.30;;
22240;SDS011;11289;52.524;13.694;2022-10-16T07:43:47;3.53;;;2.45;;
22240;SDS011;11289;52.524;13.694;2022-10-16T07:46:13;4.55;;;1.80;;
22240;SDS011;11289;52.524;13.694;2022-10-16T07:48:39;2.47;;;1.67;;
22240;SDS011;11289;52.524;13.694;2022-10-16T07:51:06;2.40;;;1.77;;
22240;SDS011;11289;52.524;13.694;2022-10-16T07:53:32;2.20;;;1.60;;
22240;SDS011;11289;52.524;13.694;2022-10-16T07:55:58;2.83;;;2.28;;
22240;SDS011;11289;52.524;13.694;2022-10-16T07:58:24;2.45;;;1.55;;
22240;SDS011;11289;52.524;13.694;2022-10-16T08:00:50;2.30;;;1.50;;
22240;SDS011;11289;52.524;13.694;2022-10-16T08:03:15;2.45;;;1.70;;
22240;SDS011;11289;52.524;13.694;2022-10-16T08:05:41;3.38;;;1.73;;
22240;SDS011;11289;52.524;13.694;2022-10-16T08:08:06;4.70;;;1.85;;
22240;SDS011;11289;52.524;13.694;2022-10-16T08:10:36;2.78;;;1.63;;
22240;SDS011;11289;52.524;13.694;2022-10-16T08:13:01;4.50;;;1.50;;
22240;SDS011;11289;52.524;13.694;2022-10-16T08:15:27;3.38;;;2.00;;
22240;SDS011;11289;52.524;13.694;2022-10-16T08:17:59;1.98;;;1.50;;
22240;SDS011;11289;52.524;13.694;2022-10-16T08:20:29;4.45;;;3.17;;
22240;SDS011;11289;52.524;13.694;2022-10-16T08:22:55;4.07;;;2.85;;
22240;SDS011;11289;52.524;13.694;2022-10-16T08:25:21;3.45;;;1.45;;
22240;SDS011;11289;52.524;13.694;2022-10-16T08:27:47;1.75;;;1.30;;
22240;SDS011;11289;52.524;13.694;2022-10-16T08:30:13;3.15;;;1.20;;
22240;SDS011;11289;52.524;13.694;2022-10-16T08:32:39;2.03;;;1.38;;
22240;SDS011;11289;52.524;13.694;2022-10-16T08:35:07;1.45;;;1.20;;
22240;SDS011;11289;52.524;13.694;2022-10-16T08:37:34;1.20;;;1.10;;
22240;SDS011;11289;52.524;13.694;2022-10-16T08:40:00;1.17;;;1.02;;
22240;SDS011;11289;52.524;13.694;2022-10-16T08:42:29;1.60;;;1.25;;
22240;SDS011;11289;52.524;13.694;2022-10-16T08:45:19;3.45;;;1.10;;
22240;SDS011;11289;52.524;13.694;2022-10-16T08:50:42;1.15;;;1.05;;
22240;SDS011;11289;52.524;13.694;2022-10-16T08:53:10;1.55;;;1.10;;
22240;SDS011;11289;52.524;13.694;2022-10-16T08:55:44;2.42;;;1.13;;
22240;SDS011;11289;52.524;13.694;2022-10-16T08:58:18;2.30;;;1.20;;
22240;SDS011;11289;52.524;13.694;2022-10-16T09:00:47;3.42;;;1.23;;
22240;SDS011;11289;52.524;13.694;2022-10-16T09:23:41;5.72;;;1.90;;
22240;SDS011;11289;52.524;13.694;2022-10-16T09:25:52;1.48;;;1.17;;
22240;SDS011;11289;52.524;13.694;2022-10-16T09:28:19;8.40;;;5.32;;
22240;SDS011;11289;52.524;13.694;2022-10-16T09:30:45;3.00;;;1.90;;
22240;SDS011;11289;52.524;13.694;2022-10-16T09:33:13;1.10;;;1.00;;
22240;SDS011;11289;52.524;13.694;2022-10-16T09:38:08;1.85;;;1.10;;
22240;SDS011;11289;52.524;13.694;2022-10-16T09:40:38;0.80;;;0.80;;
22240;SDS011;11289;52.524;13.694;2022-10-16T09:45:55;2.33;;;0.95;;
22240;SDS011;11289;52.524;13.694;2022-10-16T09:48:36;1.00;;;0.90;;
22240;SDS011;11289;52.524;13.694;2022-10-16T09:51:04;2.63;;;1.10;;
22240;SDS011;11289;52.524;13.694;2022-10-16T09:53:38;0.85;;;0.85;;
22240;SDS011;11289;52.524;13.694;2022-10-16T09:56:10;2.50;;;1.00;;
22240;SDS011;11289;52.524;13.694;2022-10-16T09:58:54;1.33;;;0.90;;
22240;SDS011;11289;52.524;13.694;2022-10-16T10:01:44;1.20;;;0.80;;
22240;SDS011;11289;52.524;13.694;2022-10-16T10:04:12;2.25;;;0.98;;
22240;SDS011;11289;52.524;13.694;2022-10-16T10:06:43;3.00;;;0.93;;
22240;SDS011;11289;52.524;13.694;2022-10-16T10:11:52;0.95;;;0.85;;
22240;SDS011;11289;52.524;13.694;2022-10-16T10:14:23;1.37;;;1.17;;
22240;SDS011;11289;52.524;13.694;2022-10-16T10:16:52;1.08;;;0.90;;
22240;SDS011;11289;52.524;13.694;2022-10-16T10:19:27;1.33;;;0.93;;
22240;SDS011;11289;52.524;13.694;2022-10-16T10:21:52;2.63;;;1.00;;
22240;SDS011;11289;52.524;13.694;2022-10-16T10:24:18;1.65;;;0.90;;
22240;SDS011;11289;52.524;13.694;2022-10-16T10:26:47;0.93;;;0.80;;
22240;SDS011;11289;52.524;13.694;2022-10-16T10:31:56;2.80;;;1.77;;
22240;SDS011;11289;52.524;13.694;2022-10-16T10:37:19;1.33;;;0.90;;
22240;SDS011;11289;52.524;13.694;2022-10-16T10:40:28;0.80;;;0.80;;
22240;SDS011;11289;52.524;13.694;2022-10-16T10:43:26;0.63;;;0.63;;
22240;SDS011;11289;52.524;13.694;2022-10-16T10:46:08;1.45;;;0.90;;
22240;SDS011;11289;52.524;13.694;2022-10-16T10:48:56;1.05;;;0.90;;
22240;SDS011;11289;52.524;13.694;2022-10-16T10:51:44;4.70;;;2.25;;
22240;SDS011;11289;52.524;13.694;2022-10-16T10:57:42;2.67;;;1.60;;
22240;SDS011;11289;52.524;13.694;2022-10-16T11:00:21;2.97;;;1.20;;
22240;SDS011;11289;52.524;13.694;2022-10-16T11:03:03;1.20;;;0.90;;
22240;SDS011;11289;52.524;13.694;2022-10-16T11:05:38;0.75;;;0.50;;
22240;SDS011;11289;52.524;13.694;2022-10-16T11:08:10;1.50;;;1.00;;
22240;SDS011;11289;52.524;13.694;2022-10-16T11:10:58;1.88;;;0.90;;
22240;SDS011;11289;52.524;13.694;2022-10-16T11:16:16;0.93;;;0.80;;
22240;SDS011;11289;52.524;13.694;2022-10-16T11:18:47;0.73;;;0.60;;
22240;SDS011;11289;52.524;13.694;2022-10-16T11:21:20;2.85;;;0.75;;
22240;SDS011;11289;52.524;13.694;2022-10-16T11:26:28;0.70;;;0.60;;
22240;SDS011;11289;52.524;13.694;2022-10-16T11:28:58;3.42;;;2.25;;
22240;SDS011;11289;52.524;13.694;2022-10-16T11:34:05;2.72;;;1.20;;
22240;SDS011;11289;52.524;13.694;2022-10-16T11:36:56;0.80;;;0.68;;
22240;SDS011;11289;52.524;13.694;2022-10-16T11:39:26;0.60;;;0.60;;
22240;SDS011;11289;52.524;13.694;2022-10-16T11:41:55;0.80;;;0.60;;
22240;SDS011;11289;52.524;13.694;2022-10-16T11:47:07;0.70;;;0.70;;
22240;SDS011;11289;52.524;13.694;2022-10-16T11:49:37;3.28;;;0.77;;
22240;SDS011;11289;52.524;13.694;2022-10-16T11:52:11;0.70;;;0.60;;
22240;SDS011;11289;52.524;13.694;2022-10-16T11:55:05;1.25;;;0.73;;
22240;SDS011;11289;52.524;13.694;2022-10-16T11:57:51;1.00;;;0.60;;
22240;SDS011;11289;52.524;13.694;2022-10-16T12:03:05;0.75;;;0.32;;
22240;SDS011;11289;52.524;13.694;2022-10-16T12:06:13;0.47;;;0.20;;
22240;SDS011;11289;52.524;13.694;2022-10-16T12:08:59;0.50;;;0.50;;
22240;SDS011;11289;52.524;13.694;2022-10-16T12:13:51;2.60;;;1.83;;
22240;SDS011;11289;52.524;13.694;2022-10-16T12:16:28;0.88;;;0.85;;
22240;SDS011;11289;52.524;13.694;2022-10-16T12:19:13;0.65;;;0.50;;
22240;SDS011;11289;52.524;13.694;2022-10-16T12:21:41;3.38;;;0.70;;
22240;SDS011;11289;52.524;13.694;2022-10-16T12:24:19;0.45;;;0.45;;
22240;SDS011;11289;52.524;13.694;2022-10-16T12:26:46;1.58;;;0.52;;
22240;SDS011;11289;52.524;13.694;2022-10-16T12:34:23;1.38;;;0.60;;
22240;SDS011;11289;52.524;13.694;2022-10-16T12:37:21;2.42;;;0.52;;
22240;SDS011;11289;52.524;13.694;2022-10-16T12:42:21;1.30;;;0.63;;
22240;SDS011;11289;52.524;13.694;2022-10-16T12:44:49;0.80;;;0.65;;
22240;SDS011;11289;52.524;13.694;2022-10-16T12:47:35;0.68;;;0.50;;
22240;SDS011;11289;52.524;13.694;2022-10-16T12:50:02;1.42;;;0.70;;
22240;SDS011;11289;52.524;13.694;2022-10-16T12:52:47;0.60;;;0.43;;
22240;SDS011;11289;52.524;13.694;2022-10-16T12:55:17;0.60;;;0.43;;
22240;SDS011;11289;52.524;13.694;2022-10-16T13:21:59;0.60;;;0.60;;
22240;SDS011;11289;52.524;13.694;2022-10-16T13:24:42;2.40;;;0.57;;
22240;SDS011;11289;52.524;13.694;2022-10-16T13:27:47;0.40;;;0.40;;
22240;SDS011;11289;52.524;13.694;2022-10-16T13:30:19;4.22;;;1.98;;
22240;SDS011;11289;52.524;13.694;2022-10-16T13:32:48;0.68;;;0.60;;
22240;SDS011;11289;52.524;13.694;2022-10-16T13:35:24;0.68;;;0.55;;
22240;SDS011;11289;52.524;13.694;2022-10-16T13:38:04;0.80;;;0.70;;
22240;SDS011;11289;52.524;13.694;2022-10-16T13:40:36;1.00;;;0.70;;
22240;SDS011;11289;52.524;13.694;2022-10-16T13:43:02;0.55;;;0.50;;
22240;SDS011;11289;52.524;13.694;2022-10-16T13:45:27;0.70;;;0.50;;
22240;SDS011;11289;52.524;13.694;2022-10-16T13:48:03;0.70;;;0.60;;
22240;SDS011;11289;52.524;13.694;2022-10-16T13:50:38;0.70;;;0.70;;
22240;SDS011;11289;52.524;13.694;2022-10-16T13:53:09;3.47;;;0.80;;
22240;SDS011;11289;52.524;13.694;2022-10-16T13:55:42;0.70;;;0.60;;
22240;SDS011;11289;52.524;13.694;2022-10-16T13:58:08;1.00;;;0.75;;
22240;SDS011;11289;52.524;13.694;2022-10-16T14:00:41;1.20;;;0.70;;
22240;SDS011;11289;52.524;13.694;2022-10-16T14:03:21;1.38;;;0.68;;
22240;SDS011;11289;52.524;13.694;2022-10-16T14:05:49;0.93;;;0.65;;
22240;SDS011;11289;52.524;13.694;2022-10-16T14:08:17;1.50;;;0.70;;
22240;SDS011;11289;52.524;13.694;2022-10-16T14:10:47;0.60;;;0.60;;
22240;SDS011;11289;52.524;13.694;2022-10-16T14:13:16;1.15;;;0.70;;
22240;SDS011;11289;52.524;13.694;2022-10-16T14:15:48;1.02;;;0.50;;
22240;SDS011;11289;52.524;13.694;2022-10-16T14:18:20;1.25;;;0.70;;
22240;SDS011;11289;52.524;13.694;2022-10-16T14:20:49;0.70;;;0.70;;
22240;SDS011;11289;52.524;13.694;2022-10-16T14:28:33;1.98;;;0.60;;
22240;SDS011;11289;52.524;13.694;2022-10-16T14:31:00;2.15;;;0.77;;
22240;SDS011;11289;52.524;13.694;2022-10-16T14:38:30;0.80;;;0.80;;
22240;SDS011;11289;52.524;13.694;2022-10-16T14:40:56;1.30;;;0.68;;
22240;SDS011;11289;52.524;13.694;2022-10-16T14:45:55;0.85;;;0.70;;
22240;SDS011;11289;52.524;13.694;2022-10-16T14:48:22;2.15;;;0.80;;
22240;SDS011;11289;52.524;13.694;2022-10-16T14:50:48;1.25;;;0.65;;
22240;SDS011;11289;52.524;13.694;2022-10-16T14:53:14;0.50;;;0.50;;
22240;SDS011;11289;52.524;13.694;2022-10-16T14:55:42;1.05;;;0.45;;
22240;SDS011;11289;52.524;13.694;2022-10-16T14:58:10;1.17;;;0.90;;
22240;SDS011;11289;52.524;13.694;2022-10-16T15:00:44;0.30;;;0.20;;
22240;SDS011;11289;52.524;13.694;2022-10-16T15:03:10;0.68;;;0.38;;
22240;SDS011;11289;52.524;13.694;2022-10-16T15:05:35;0.77;;;0.60;;
22240;SDS011;11289;52.524;13.694;2022-10-16T15:08:04;1.02;;;0.70;;
22240;SDS011;11289;52.524;13.694;2022-10-16T15:10:42;1.35;;;0.70;;
22240;SDS011;11289;52.524;13.694;2022-10-16T15:13:12;1.63;;;0.40;;
22240;SDS011;11289;52.524;13.694;2022-10-16T15:15:42;8.05;;;4.10;;
22240;SDS011;11289;52.524;13.694;2022-10-16T15:18:11;1.92;;;1.38;;
22240;SDS011;11289;52.524;13.694;2022-10-16T15:20:39;1.35;;;1.02;;
22240;SDS011;11289;52.524;13.694;2022-10-16T15:23:08;2.03;;;0.88;;
22240;SDS011;11289;52.524;13.694;2022-10-16T15:26:13;1.17;;;0.80;;
22240;SDS011;11289;52.524;13.694;2022-10-16T15:28:32;0.80;;;0.80;;
22240;SDS011;11289;52.524;13.694;2022-10-16T15:30:58;3.92;;;0.80;;
22240;SDS011;11289;52.524;13.694;2022-10-16T15:33:24;1.35;;;0.90;;
22240;SDS011;11289;52.524;13.694;2022-10-16T15:35:58;1.48;;;0.90;;
22240;SDS011;11289;52.524;13.694;2022-10-16T15:38:23;2.05;;;1.10;;
22240;SDS011;11289;52.524;13.694;2022-10-16T15:40:49;0.70;;;0.70;;
22240;SDS011;11289;52.524;13.694;2022-10-16T15:43:15;1.40;;;0.90;;
22240;SDS011;11289;52.524;13.694;2022-10-16T15:45:54;1.38;;;0.88;;
22240;SDS011;11289;52.524;13.694;2022-10-16T15:48:35;1.88;;;1.00;;
22240;SDS011;11289;52.524;13.694;2022-10-16T15:51:01;1.23;;;0.95;;
22240;SDS011;11289;52.524;13.694;2022-10-16T15:53:30;1.15;;;0.90;;
22240;SDS011;11289;52.524;13.694;2022-10-16T15:55:56;2.55;;;0.90;;
22240;SDS011;11289;52.524;13.694;2022-10-16T15:58:21;2.08;;;0.82;;
22240;SDS011;11289;52.524;13.694;2022-10-16T16:00:54;3.13;;;1.50;;
22240;SDS011;11289;52.524;13.694;2022-10-16T16:03:20;1.30;;;1.20;;
22240;SDS011;11289;52.524;13.694;2022-10-16T16:05:46;1.10;;;1.00;;
22240;SDS011;11289;52.524;13.694;2022-10-16T16:08:11;2.13;;;1.05;;
22240;SDS011;11289;52.524;13.694;2022-10-16T16:10:37;1.20;;;1.00;;
22240;SDS011;11289;52.524;13.694;2022-10-16T16:13:02;4.03;;;1.10;;
22240;SDS011;11289;52.524;13.694;2022-10-16T16:15:28;1.40;;;1.08;;
22240;SDS011;11289;52.524;13.694;2022-10-16T16:17:53;1.45;;;1.23;;
22240;SDS011;11289;52.524;13.694;2022-10-16T16:20:19;1.58;;;1.38;;
22240;SDS011;11289;52.524;13.694;2022-10-16T16:22:45;3.05;;;1.52;;
22240;SDS011;11289;52.524;13.694;2022-10-16T16:25:10;2.35;;;1.63;;
22240;SDS011;11289;52.524;13.694;2022-10-16T16:27:36;2.13;;;1.40;;
22240;SDS011;11289;52.524;13.694;2022-10-16T16:30:03;3.60;;;1.45;;
22240;SDS011;11289;52.524;13.694;2022-10-16T16:32:32;3.35;;;1.63;;
22240;SDS011;11289;52.524;13.694;2022-10-16T16:34:58;2.92;;;1.80;;
22240;SDS011;11289;52.524;13.694;2022-10-16T16:37:23;4.25;;;2.08;;
22240;SDS011;11289;52.524;13.694;2022-10-16T16:39:49;4.25;;;2.30;;
22240;SDS011;11289;52.524;13.694;2022-10-16T16:42:14;3.63;;;2.50;;
22240;SDS011;11289;52.524;13.694;2022-10-16T16:44:40;3.85;;;2.70;;